Time;durP1;ratioP1;P1;durP2;ratioP2;P2;SDS_P1;SDS_P2;PMS_P1;PMS_P2;Temp;Humidity;BMP_temperature;BMP_pressure;BME280_temperature;BME280_humidity;BME280_pressure;Samples;Min_cycle;Max_cycle;Signal;HPM_P1;HPM_P2
2022/06/06 00:01:18;;;;;;;7.97;6.47;;;15.90;99.90;;;;;;4934245;29;20047;-96
2022/06/06 00:04:10;;;;;;;7.85;6.45;;;15.90;99.90;;;;;;4965820;29;20044;-94
2022/06/06 00:10:54;;;;;;;7.13;5.97;;;15.90;99.90;;;;;;4916390;29;20079;-96
2022/06/06 00:16:25;;;;;;;10.30;6.07;;;15.90;99.90;;;;;;4939428;29;20051;-95
2022/06/06 00:22:45;;;;;;;12.23;7.03;;;15.90;99.90;;;;;;4977386;28;20138;-96
2022/06/06 00:29:16;;;;;;;8.77;6.78;;;15.80;99.90;;;;;;5012734;28;20066;-96
2022/06/06 00:38:19;;;;;;;9.05;6.20;;;15.80;99.90;;;;;;5054368;28;20056;-96
2022/06/06 00:40:51;;;;;;;7.20;5.78;;;15.80;99.90;;;;;;5036602;28;20037;-96
2022/06/06 00:43:18;;;;;;;9.10;6.70;;;15.80;99.90;;;;;;5037853;28;20073;-96
2022/06/06 00:45:49;;;;;;;7.75;6.07;;;15.80;99.90;;;;;;5007848;28;20045;-96
2022/06/06 00:48:51;;;;;;;9.63;6.93;;;15.80;99.90;;;;;;5024128;28;20037;-96
2022/06/06 00:52:25;;;;;;;8.13;6.45;;;15.80;99.90;;;;;;5020875;28;20040;-95
2022/06/06 00:55:30;;;;;;;10.93;6.55;;;15.80;99.90;;;;;;4966496;28;20047;-90
2022/06/06 00:58:42;;;;;;;9.38;6.93;;;15.70;99.90;;;;;;4998807;28;20050;-95
2022/06/06 01:05:01;;;;;;;9.75;6.72;;;16.20;99.90;;;;;;4983376;28;20035;-96
2022/06/06 01:26:12;;;;;;;11.50;8.82;;;15.60;99.90;;;;;;4993839;28;20076;-96
2022/06/06 01:29:57;;;;;;;16.95;9.18;;;15.60;99.90;;;;;;5015005;28;20034;-96
2022/06/06 01:33:27;;;;;;;16.50;9.20;;;15.60;99.90;;;;;;4998141;28;20050;-96
2022/06/06 01:36:10;;;;;;;16.95;8.77;;;15.50;99.90;;;;;;4942470;28;20039;-96
2022/06/06 01:38:37;;;;;;;14.73;8.02;;;15.50;99.90;;;;;;4953640;28;20132;-96
2022/06/06 01:46:03;;;;;;;11.15;7.18;;;15.40;99.90;;;;;;4988333;28;20089;-96
2022/06/06 01:48:51;;;;;;;14.50;7.60;;;15.30;99.90;;;;;;4937176;29;20056;-96
2022/06/06 01:51:23;;;;;;;11.88;7.28;;;15.20;99.90;;;;;;4902210;29;20068;-96
2022/06/06 01:54:39;;;;;;;17.25;7.85;;;15.20;99.90;;;;;;4983087;28;20027;-96
2022/06/06 01:57:12;;;;;;;16.83;7.43;;;15.10;99.90;;;;;;4989565;28;20039;-96
2022/06/06 01:59:39;;;;;;;13.85;6.93;;;15.00;99.90;;;;;;4962955;28;20042;-96
2022/06/06 02:02:07;;;;;;;12.00;7.57;;;15.00;99.90;;;;;;4961995;28;20518;-96
2022/06/06 02:04:43;;;;;;;9.30;6.40;;;14.90;99.90;;;;;;4971257;28;20042;-96
2022/06/06 02:07:11;;;;;;;12.70;7.20;;;14.90;99.90;;;;;;4981354;28;20041;-96
2022/06/06 02:09:39;;;;;;;12.48;6.32;;;14.90;99.90;;;;;;5000857;28;20600;-95
2022/06/06 02:12:05;;;;;;;10.02;6.15;;;14.80;99.90;;;;;;4981945;28;20529;-93
2022/06/06 02:14:31;;;;;;;14.13;7.20;;;14.80;99.90;;;;;;4981040;28;20056;-95
2022/06/06 02:16:56;;;;;;;8.43;5.82;;;14.80;99.90;;;;;;4980603;28;20037;-95
2022/06/06 02:19:22;;;;;;;12.52;5.95;;;15.40;99.90;;;;;;5004009;28;20056;-96
2022/06/06 02:21:48;;;;;;;9.35;5.53;;;14.70;99.90;;;;;;5036728;28;20037;-95
2022/06/06 02:24:13;;;;;;;9.00;4.88;;;14.70;99.90;;;;;;5024351;28;20040;-96
2022/06/06 02:26:46;;;;;;;8.48;5.00;;;14.70;99.90;;;;;;5027621;28;20096;-96
2022/06/06 02:29:33;;;;;;;12.65;4.75;;;14.60;99.90;;;;;;5076231;28;20068;-96
2022/06/06 02:32:01;;;;;;;8.90;4.47;;;14.60;99.90;;;;;;5061662;28;20074;-95
2022/06/06 02:34:44;;;;;;;11.38;4.53;;;14.60;99.90;;;;;;5083096;28;20051;-95
2022/06/06 02:37:17;;;;;;;7.50;4.30;;;14.60;99.90;;;;;;5061172;28;20024;-96
2022/06/06 02:39:52;;;;;;;7.57;3.63;;;14.50;99.90;;;;;;5093494;28;20048;-96
2022/06/06 02:42:27;;;;;;;5.78;3.70;;;14.50;99.90;;;;;;5081522;28;20052;-96
2022/06/06 02:44:55;;;;;;;6.93;3.53;;;14.50;99.90;;;;;;5079207;28;20036;-95
2022/06/06 02:47:52;;;;;;;7.97;3.70;;;14.40;99.90;;;;;;5046273;28;20053;-96
2022/06/06 02:50:20;;;;;;;6.43;3.80;;;14.40;99.90;;;;;;5098362;28;20024;-96
2022/06/06 02:52:46;;;;;;;7.10;3.63;;;14.40;99.90;;;;;;5074585;28;20058;-96
2022/06/06 02:55:38;;;;;;;7.43;3.35;;;14.50;99.90;;;;;;5096266;28;20039;-96
2022/06/06 02:58:11;;;;;;;13.93;3.50;;;14.40;99.90;;;;;;5060194;28;20104;-94
2022/06/06 03:04:22;;;;;;;6.32;4.38;;;14.30;99.90;;;;;;5092503;28;20040;-96
2022/06/06 03:10:27;;;;;;;6.38;3.88;;;14.30;99.90;;;;;;5037467;28;20021;-96
2022/06/06 03:20:48;;;;;;;5.95;3.75;;;14.30;99.90;;;;;;5047271;28;20071;-96
2022/06/06 03:23:51;;;;;;;6.43;3.95;;;14.30;99.90;;;;;;5048661;28;20048;-96
2022/06/06 03:26:53;;;;;;;5.65;4.00;;;14.30;99.90;;;;;;5051950;28;20021;-96
2022/06/06 03:33:15;;;;;;;9.48;4.70;;;13.40;99.90;;;;;;5069746;28;20048;-96
2022/06/06 03:36:55;;;;;;;5.10;3.70;;;14.20;99.90;;;;;;5018247;28;20102;-96
2022/06/06 03:39:37;;;;;;;10.45;4.70;;;14.20;99.90;;;;;;5015628;28;20335;-96
2022/06/06 03:43:14;;;;;;;9.73;5.43;;;15.30;99.90;;;;;;5032091;28;20077;-96
2022/06/06 03:46:45;;;;;;;7.20;4.55;;;14.20;99.90;;;;;;4934585;29;20052;-95
2022/06/06 03:49:32;;;;;;;7.88;4.70;;;14.20;99.90;;;;;;4905583;29;20125;-95
2022/06/06 03:52:16;;;;;;;8.15;4.32;;;14.20;99.90;;;;;;4920893;29;20056;-95
2022/06/06 03:55:06;;;;;;;8.25;4.53;;;14.20;99.90;;;;;;4920838;28;20048;-91
2022/06/06 03:57:35;;;;;;;7.28;4.45;;;14.20;99.90;;;;;;4971590;28;20051;-95
2022/06/06 04:00:12;;;;;;;8.88;4.35;;;14.10;99.90;;;;;;4956701;28;20142;-94
2022/06/06 04:02:42;;;;;;;6.85;4.20;;;14.20;99.90;;;;;;4959401;28;20050;-96
2022/06/06 04:05:12;;;;;;;6.95;4.22;;;14.20;99.90;;;;;;4937598;28;20110;-96
2022/06/06 04:07:39;;;;;;;8.30;3.95;;;14.20;99.90;;;;;;4945792;28;20070;-96
2022/06/06 04:10:24;;;;;;;6.93;4.10;;;14.20;99.90;;;;;;4951382;28;20074;-96
2022/06/06 04:13:33;;;;;;;9.52;4.60;;;14.20;99.90;;;;;;4997566;28;20123;-94
2022/06/06 04:16:17;;;;;;;6.60;4.57;;;14.20;99.90;;;;;;5014909;28;20041;-95
2022/06/06 04:19:21;;;;;;;6.57;3.97;;;14.20;99.90;;;;;;5003185;28;20061;-95
2022/06/06 04:22:14;;;;;;;5.60;4.07;;;14.20;99.90;;;;;;5005886;28;20095;-96
2022/06/06 04:25:24;;;;;;;7.10;4.30;;;14.20;99.90;;;;;;5018464;28;20085;-96
2022/06/06 04:29:13;;;;;;;5.00;2.33;;;14.30;99.90;;;;;;4945617;28;20052;-96
2022/06/06 04:32:17;;;;;;;5.78;3.80;;;14.30;99.90;;;;;;5041914;28;20292;-94
2022/06/06 04:35:25;;;;;;;8.82;3.67;;;14.30;99.90;;;;;;5022577;28;20030;-96
2022/06/06 04:38:01;;;;;;;7.95;2.95;;;14.30;99.90;;;;;;5030203;28;20049;-96
2022/06/06 04:40:52;;;;;;;6.10;3.50;;;14.30;99.90;;;;;;5031837;28;20044;-95
2022/06/06 04:43:44;;;;;;;4.05;2.60;;;14.30;99.90;;;;;;5006800;28;20505;-96
2022/06/06 04:46:30;;;;;;;4.93;3.20;;;14.30;99.90;;;;;;5017902;28;20493;-95
2022/06/06 04:48:58;;;;;;;4.22;2.75;;;14.30;99.90;;;;;;5028132;28;20516;-96
2022/06/06 04:51:27;;;;;;;3.92;3.00;;;14.30;99.90;;;;;;5042364;28;20042;-96
2022/06/06 04:54:19;;;;;;;5.38;2.63;;;14.30;99.90;;;;;;5049862;28;20051;-96
2022/06/06 04:57:11;;;;;;;4.17;3.47;;;14.40;99.90;;;;;;5070514;28;20048;-96
2022/06/06 04:59:38;;;;;;;3.78;2.55;;;14.30;99.90;;;;;;5084378;28;20071;-96
2022/06/06 05:02:09;;;;;;;5.03;3.00;;;15.50;99.90;;;;;;5087300;28;20037;-95
2022/06/06 05:04:54;;;;;;;2.92;2.40;;;14.40;99.90;;;;;;5060664;28;20072;-96
2022/06/06 05:07:56;;;;;;;2.08;1.60;;;14.40;99.90;;;;;;5047046;28;20041;-96
2022/06/06 05:10:45;;;;;;;1.75;1.35;;;14.40;99.90;;;;;;5071607;28;20076;-96
2022/06/06 05:13:58;;;;;;;4.07;1.30;;;14.30;99.90;;;;;;5046183;28;20044;-96
2022/06/06 05:16:50;;;;;;;1.88;1.15;;;14.40;99.90;;;;;;5050546;28;20110;-96
2022/06/06 05:19:31;;;;;;;1.73;1.00;;;14.30;99.90;;;;;;5074614;28;20138;-96
2022/06/06 05:22:09;;;;;;;3.85;1.80;;;14.30;99.90;;;;;;5071459;28;20063;-96
2022/06/06 05:25:18;;;;;;;2.30;1.85;;;14.30;99.90;;;;;;5069511;28;20060;-96
2022/06/06 05:28:21;;;;;;;3.28;2.40;;;14.30;99.90;;;;;;5061430;28;20045;-96
2022/06/06 05:31:30;;;;;;;3.73;2.80;;;14.30;99.90;;;;;;5067823;28;20036;-96
2022/06/06 05:34:34;;;;;;;3.75;2.30;;;14.20;99.90;;;;;;5085104;28;20051;-96
2022/06/06 05:37:28;;;;;;;4.60;2.80;;;14.20;99.90;;;;;;5087957;28;20130;-96
2022/06/06 05:39:53;;;;;;;3.00;2.42;;;14.10;99.90;;;;;;5084763;28;20521;-91
2022/06/06 05:42:28;;;;;;;4.50;2.75;;;14.20;99.90;;;;;;5081350;28;20048;-89
2022/06/06 05:45:15;;;;;;;3.65;2.70;;;14.10;99.90;;;;;;5085656;28;20051;-87
2022/06/06 05:48:06;;;;;;;4.82;2.90;;;14.10;99.90;;;;;;5100920;28;20035;-89
2022/06/06 05:50:44;;;;;;;4.82;2.88;;;15.10;99.90;;;;;;5106409;28;20091;-89
2022/06/06 05:53:15;;;;;;;6.22;3.60;;;14.60;99.90;;;;;;5096623;28;20067;-91
2022/06/06 05:55:56;;;;;;;9.38;4.28;;;14.00;99.90;;;;;;5073482;28;20039;-89
2022/06/06 05:58:34;;;;;;;8.50;5.00;;;14.00;99.90;;;;;;5090062;28;20105;-92
2022/06/06 06:01:39;;;;;;;8.05;4.68;;;14.00;99.90;;;;;;5075006;28;20445;-89
2022/06/06 06:04:26;;;;;;;9.75;4.18;;;13.90;99.90;;;;;;5073791;28;20052;-90
2022/06/06 06:07:06;;;;;;;10.05;4.78;;;13.90;99.90;;;;;;5076040;28;20040;-91
2022/06/06 06:09:57;;;;;;;7.38;4.20;;;13.90;99.90;;;;;;5104055;28;20052;-90
2022/06/06 06:13:10;;;;;;;10.05;4.80;;;13.90;99.90;;;;;;5084981;28;20103;-89
2022/06/06 06:15:39;;;;;;;6.60;3.92;;;13.90;99.90;;;;;;5075784;28;20055;-90
2022/06/06 06:18:31;;;;;;;7.47;3.67;;;13.90;99.90;;;;;;5085679;28;20047;-90
2022/06/06 06:21:21;;;;;;;10.57;4.15;;;13.90;99.90;;;;;;5061497;28;20047;-89
2022/06/06 06:23:54;;;;;;;7.80;3.70;;;14.00;99.90;;;;;;5089919;28;20120;-90
2022/06/06 06:26:20;;;;;;;6.97;4.20;;;13.90;99.90;;;;;;5072477;28;20170;-91
2022/06/06 06:28:48;;;;;;;10.20;3.92;;;14.00;99.90;;;;;;5088309;28;20048;-89
2022/06/06 06:31:22;;;;;;;6.07;4.15;;;13.90;99.90;;;;;;5090668;28;20131;-92
2022/06/06 06:33:55;;;;;;;9.80;4.45;;;13.90;99.90;;;;;;5088980;28;20039;-92
2022/06/06 06:36:38;;;;;;;9.35;5.28;;;13.90;99.90;;;;;;5090754;28;20433;-92
2022/06/06 06:39:10;;;;;;;11.80;4.60;;;13.90;99.90;;;;;;5073029;28;20047;-93
2022/06/06 06:41:44;;;;;;;8.18;4.63;;;13.90;99.90;;;;;;5071051;28;20055;-90
2022/06/06 06:44:17;;;;;;;10.30;5.43;;;13.90;99.90;;;;;;5074123;28;20050;-89
2022/06/06 06:47:02;;;;;;;6.60;3.78;;;15.10;99.90;;;;;;5070912;28;20089;-91
2022/06/06 06:49:41;;;;;;;4.85;3.47;;;13.80;99.90;;;;;;5088946;28;20043;-93
2022/06/06 06:52:35;;;;;;;5.57;3.63;;;13.90;99.90;;;;;;5089726;28;20098;-89
2022/06/06 06:55:35;;;;;;;9.57;3.13;;;13.20;99.90;;;;;;5086635;28;20094;-88
2022/06/06 06:58:19;;;;;;;5.10;2.70;;;14.00;99.90;;;;;;5088273;28;20499;-88
2022/06/06 07:00:51;;;;;;;3.90;2.28;;;14.20;99.90;;;;;;5090410;28;20032;-91
2022/06/06 07:09:28;;;;;;;1.80;1.58;;;14.50;99.90;;;;;;5094316;28;20047;-86
2022/06/06 07:12:14;;;;;;;3.65;2.10;;;14.50;99.90;;;;;;5074235;28;20051;-90
2022/06/06 07:14:58;;;;;;;4.82;2.40;;;14.60;99.90;;;;;;5077847;28;20214;-90
2022/06/06 07:17:26;;;;;;;2.53;1.77;;;14.70;99.90;;;;;;5092382;28;20042;-88
2022/06/06 07:19:59;;;;;;;4.40;2.10;;;14.70;99.90;;;;;;5110143;28;20039;-86
2022/06/06 07:22:59;;;;;;;2.75;1.70;;;14.80;99.90;;;;;;5076806;28;20048;-88
2022/06/06 07:25:15;;;;;;;3.25;1.55;;;14.90;99.90;;;;;;5090959;28;20126;-87
2022/06/06 07:27:41;;;;;;;6.38;1.98;;;14.80;99.90;;;;;;5092862;28;20134;-90
2022/06/06 07:30:07;;;;;;;3.83;1.88;;;14.80;99.90;;;;;;5075877;28;20059;-92
2022/06/06 07:32:48;;;;;;;3.33;2.10;;;14.80;99.90;;;;;;5092553;28;20055;-91
2022/06/06 07:35:22;;;;;;;2.25;1.70;;;14.80;99.90;;;;;;5077254;28;20039;-92
2022/06/06 07:37:51;;;;;;;2.33;1.77;;;14.80;99.90;;;;;;5091662;28;20140;-88
2022/06/06 07:40:42;;;;;;;5.50;2.17;;;14.90;99.90;;;;;;5076832;28;20036;-90
2022/06/06 07:43:27;;;;;;;4.68;1.90;;;15.00;99.90;;;;;;5075797;28;20059;-89
2022/06/06 07:46:07;;;;;;;4.20;1.38;;;15.10;99.90;;;;;;5091436;28;20043;-90
2022/06/06 07:48:43;;;;;;;4.03;1.63;;;15.10;99.90;;;;;;5076152;28;20040;-88
2022/06/06 07:51:47;;;;;;;1.75;1.10;;;15.10;99.90;;;;;;5110117;28;20048;-89
2022/06/06 07:54:20;;;;;;;3.70;1.30;;;15.50;99.90;;;;;;5095660;28;20055;-91
2022/06/06 07:57:04;;;;;;;2.28;1.30;;;15.00;99.90;;;;;;5100312;28;20058;-90
2022/06/06 07:59:49;;;;;;;3.75;1.17;;;15.10;99.90;;;;;;5097433;28;20128;-94
2022/06/06 08:02:36;;;;;;;3.03;1.13;;;15.10;99.90;;;;;;5117802;28;20086;-90
2022/06/06 08:05:17;;;;;;;2.53;1.23;;;15.30;99.90;;;;;;5099443;28;20043;-88
2022/06/06 08:08:00;;;;;;;4.38;2.10;;;15.50;99.90;;;;;;5096482;28;20043;-91
2022/06/06 08:10:40;;;;;;;3.33;1.55;;;15.90;99.90;;;;;;5089505;28;20040;-92
2022/06/06 08:13:28;;;;;;;3.78;1.35;;;16.10;99.90;;;;;;5080637;28;20036;-88
2022/06/06 08:16:20;;;;;;;3.90;1.63;;;16.20;99.90;;;;;;5079911;28;20071;-89
2022/06/06 08:19:07;;;;;;;6.22;1.42;;;15.90;99.90;;;;;;5099745;28;20044;-90
2022/06/06 08:21:44;;;;;;;1.45;0.90;;;16.20;99.90;;;;;;5080044;28;20506;-91
2022/06/06 08:24:27;;;;;;;5.07;1.58;;;16.30;99.90;;;;;;5097595;28;20039;-90
2022/06/06 08:26:54;;;;;;;;;;;16.20;99.90;;;;;;5116630;28;20232;-90
2022/06/06 08:29:22;;;;;;;4.60;1.35;;;16.10;99.90;;;;;;5114388;28;19920;-92
2022/06/06 08:31:48;;;;;;;2.42;1.70;;;16.00;99.90;;;;;;5067631;28;20475;-88
2022/06/06 08:34:14;;;;;;;4.28;1.58;;;16.00;99.90;;;;;;5098220;28;20074;-90
2022/06/06 08:37:11;;;;;;;3.80;1.70;;;16.00;99.90;;;;;;5082443;28;20521;-90
2022/06/06 08:40:14;;;;;;;4.78;2.28;;;16.20;99.90;;;;;;5098756;28;20059;-90
2022/06/06 08:42:59;;;;;;;4.32;2.70;;;16.60;99.90;;;;;;5079520;28;20048;-89
2022/06/06 08:45:52;;;;;;;2.83;2.03;;;16.70;99.90;;;;;;5081703;28;20582;-91
2022/06/06 08:48:33;;;;;;;7.22;2.63;;;16.80;99.90;;;;;;5098808;28;20130;-91
2022/06/06 08:51:01;;;;;;;6.70;2.85;;;17.00;99.90;;;;;;5094155;28;20606;-91
2022/06/06 08:53:43;;;;;;;3.60;2.42;;;17.20;99.90;;;;;;5092191;28;20060;-88
2022/06/06 08:56:34;;;;;;;3.23;2.20;;;17.20;99.90;;;;;;5073083;28;20366;-89
2022/06/06 08:59:18;;;;;;;2.55;1.88;;;17.20;99.90;;;;;;5108561;28;20083;-84
2022/06/06 09:02:06;;;;;;;3.35;1.50;;;17.00;99.90;;;;;;5074822;28;20047;-88
2022/06/06 09:04:57;;;;;;;5.30;2.70;;;16.80;99.90;;;;;;5107547;28;20066;-86
2022/06/06 09:07:58;;;;;;;2.85;2.03;;;16.80;99.90;;;;;;5090209;28;20055;-85
2022/06/06 09:10:42;;;;;;;8.23;4.70;;;16.80;99.90;;;;;;5091682;28;20058;-85
2022/06/06 09:13:53;;;;;;;4.75;2.58;;;16.70;99.90;;;;;;5089596;28;20043;-81
2022/06/06 09:16:57;;;;;;;2.60;1.70;;;16.60;99.90;;;;;;5083382;28;20123;-80
2022/06/06 09:19:28;;;;;;;13.23;4.63;;;16.50;99.90;;;;;;5074447;28;20047;-82
2022/06/06 09:22:25;;;;;;;10.60;5.28;;;16.40;99.90;;;;;;5089837;28;20139;-82
2022/06/06 09:25:29;;;;;;;8.63;2.90;;;16.40;99.90;;;;;;5088914;28;20043;-81
2022/06/06 09:28:19;;;;;;;6.60;2.33;;;16.40;99.90;;;;;;5091307;28;20123;-82
2022/06/06 09:31:00;;;;;;;6.93;3.35;;;16.50;99.90;;;;;;5090681;28;20079;-81
2022/06/06 09:33:44;;;;;;;3.15;1.42;;;16.50;99.90;;;;;;5089077;28;20090;-84
2022/06/06 09:36:13;;;;;;;3.42;1.88;;;16.50;99.90;;;;;;5091218;28;20556;-85
2022/06/06 09:38:53;;;;;;;9.55;2.47;;;16.80;99.90;;;;;;5107477;28;20126;-85
2022/06/06 09:41:34;;;;;;;7.25;3.35;;;17.10;99.90;;;;;;5073009;28;20047;-84
2022/06/06 09:44:15;;;;;;;5.10;2.13;;;17.70;99.90;;;;;;5109177;28;20051;-84
2022/06/06 09:47:24;;;;;;;3.05;2.05;;;17.70;99.90;;;;;;5088357;28;20054;-84
2022/06/06 09:49:53;;;;;;;4.47;2.13;;;17.80;99.90;;;;;;5107983;28;20548;-85
2022/06/06 09:52:48;;;;;;;5.20;2.53;;;17.80;99.90;;;;;;5072972;28;20079;-83
2022/06/06 09:59:01;;;;;;;3.17;1.35;;;17.70;99.90;;;;;;5089643;28;20044;-89
2022/06/06 10:01:44;;;;;;;2.85;1.83;;;17.90;99.90;;;;;;5090977;28;20089;-85
2022/06/06 10:04:29;;;;;;;6.65;1.08;;;18.00;99.90;;;;;;5087878;28;20498;-85
2022/06/06 10:07:15;;;;;;;6.63;1.38;;;18.00;99.90;;;;;;5108021;28;20079;-85
2022/06/06 10:09:41;;;;;;;6.15;1.02;;;18.10;99.90;;;;;;5090454;28;20065;-83
2022/06/06 10:12:28;;;;;;;3.95;1.05;;;18.20;99.90;;;;;;5087971;28;20494;-85
2022/06/06 10:15:22;;;;;;;2.33;1.02;;;18.40;99.90;;;;;;5089988;28;20094;-85
2022/06/06 10:18:02;;;;;;;1.27;0.45;;;18.50;99.90;;;;;;5107566;28;20449;-84
2022/06/06 10:20:36;;;;;;;3.53;0.65;;;18.60;99.90;;;;;;5087997;28;20121;-85
2022/06/06 10:23:35;;;;;;;2.80;0.50;;;18.90;99.90;;;;;;5090299;28;20040;-89
2022/06/06 10:26:35;;;;;;;2.58;0.68;;;18.80;99.90;;;;;;5088256;28;20047;-86
2022/06/06 10:29:24;;;;;;;2.63;0.80;;;18.80;99.90;;;;;;5084494;28;20055;-86
2022/06/06 10:31:53;;;;;;;4.28;0.65;;;18.80;99.90;;;;;;5073050;28;20073;-87
2022/06/06 10:34:28;;;;;;;2.53;0.52;;;18.80;99.90;;;;;;5087701;28;20514;-87
2022/06/06 10:36:53;;;;;;;3.95;0.90;;;18.90;99.90;;;;;;5071877;28;20093;-86
2022/06/06 10:39:38;;;;;;;2.05;0.68;;;19.20;99.90;;;;;;5089358;28;20075;-88
2022/06/06 10:42:06;;;;;;;6.07;0.68;;;19.40;99.90;;;;;;5087399;28;20055;-87
2022/06/06 10:45:10;;;;;;;2.40;0.50;;;19.70;99.90;;;;;;5090280;28;20376;-87
2022/06/06 10:47:52;;;;;;;4.80;0.75;;;19.40;99.90;;;;;;5088952;28;20043;-86
2022/06/06 10:50:36;;;;;;;2.40;0.40;;;19.70;99.90;;;;;;5104944;28;20062;-90
2022/06/06 10:53:35;;;;;;;3.97;0.77;;;19.60;99.90;;;;;;5106523;28;20105;-88
2022/06/06 10:56:36;;;;;;;6.22;1.10;;;19.50;99.90;;;;;;5122275;27;20821;-89
2022/06/06 10:59:21;;;;;;;1.80;0.50;;;19.40;99.90;;;;;;5104185;28;20393;-87
2022/06/06 11:01:46;;;;;;;2.90;0.40;;;19.40;99.90;;;;;;5106252;28;20043;-87
2022/06/06 11:04:39;;;;;;;3.13;0.40;;;19.50;99.90;;;;;;5105167;28;20146;-89
2022/06/06 11:07:23;;;;;;;2.92;0.60;;;19.50;99.90;;;;;;5106519;28;20104;-90
2022/06/06 11:09:58;;;;;;;4.20;0.32;;;19.50;99.90;;;;;;5106185;28;20043;-91
2022/06/06 11:12:43;;;;;;;3.22;0.35;;;19.50;99.90;;;;;;5103216;28;20106;-91
2022/06/06 11:15:09;;;;;;;5.00;0.80;;;19.30;99.90;;;;;;5105647;28;20051;-91
2022/06/06 11:18:03;;;;;;;2.50;0.50;;;19.40;99.90;;;;;;5070814;28;20062;-88
2022/06/06 11:20:56;;;;;;;1.48;0.35;;;19.40;99.90;;;;;;5106266;28;20437;-88
2022/06/06 11:24:06;;;;;;;4.35;0.50;;;19.30;99.90;;;;;;5106004;28;20054;-88
2022/06/06 11:27:09;;;;;;;1.50;0.77;;;19.30;99.90;;;;;;5067029;28;20085;-87
2022/06/06 11:29:48;;;;;;;4.35;0.77;;;19.40;99.90;;;;;;5103856;28;20039;-88
2022/06/06 11:32:32;;;;;;;1.00;0.30;;;19.60;99.90;;;;;;5107220;28;20047;-87
2022/06/06 11:35:31;;;;;;;5.80;0.73;;;19.70;99.90;;;;;;5089768;28;20036;-95
2022/06/06 11:38:28;;;;;;;5.45;0.95;;;19.70;99.90;;;;;;5106925;28;20062;-94
2022/06/06 11:41:33;;;;;;;7.25;0.65;;;19.60;99.90;;;;;;5108779;28;20081;-90
2022/06/06 11:44:30;;;;;;;10.38;0.90;;;19.30;99.90;;;;;;5039578;28;20474;-88
2022/06/06 11:46:56;;;;;;;0.93;0.57;;;18.90;99.90;;;;;;5070551;28;20438;-91
2022/06/06 11:49:39;;;;;;;2.85;0.70;;;18.40;99.90;;;;;;5075397;28;20043;-87
2022/06/06 11:52:23;;;;;;;3.35;0.60;;;18.30;99.90;;;;;;5091145;28;20054;-88
2022/06/06 11:55:08;;;;;;;1.88;0.40;;;18.40;99.90;;;;;;5109652;28;20140;-89
2022/06/06 11:58:31;;;;;;;2.17;0.60;;;18.60;99.90;;;;;;5078226;28;20123;-88
2022/06/06 12:01:16;;;;;;;4.63;0.73;;;18.90;99.90;;;;;;5060720;28;20052;-89
2022/06/06 12:04:19;;;;;;;2.28;0.70;;;19.00;99.90;;;;;;5095699;28;20449;-88
2022/06/06 12:07:07;;;;;;;1.02;0.55;;;19.00;99.90;;;;;;5096376;28;20044;-89
2022/06/06 12:10:03;;;;;;;1.80;0.68;;;18.80;99.90;;;;;;5079428;28;20132;-88
2022/06/06 12:12:47;;;;;;;2.50;0.60;;;18.60;99.90;;;;;;5076647;28;20048;-93
2022/06/06 12:15:23;;;;;;;1.27;0.40;;;18.50;99.90;;;;;;5094987;28;20051;-86
2022/06/06 12:18:23;;;;;;;3.58;0.50;;;18.30;99.90;;;;;;5093502;28;20047;-89
2022/06/06 12:20:55;;;;;;;;;;;18.20;99.90;;;;;;5085774;28;20051;-86
2022/06/06 12:23:51;;;;;;;3.72;1.00;;;18.10;99.90;;;;;;5096396;28;19920;-89
2022/06/06 12:26:45;;;;;;;3.55;0.80;;;18.10;99.90;;;;;;5092305;28;20047;-86
2022/06/06 12:29:37;;;;;;;1.55;0.80;;;18.20;99.90;;;;;;5089868;28;20075;-85
2022/06/06 12:32:18;;;;;;;1.95;0.70;;;18.50;99.90;;;;;;5074421;28;20552;-82
2022/06/06 12:34:45;;;;;;;3.90;0.88;;;18.70;99.90;;;;;;5089642;28;20047;-87
2022/06/06 12:37:33;;;;;;;6.45;0.77;;;18.90;99.90;;;;;;5073079;28;20051;-86
2022/06/06 12:40:03;;;;;;;5.72;0.82;;;18.90;99.90;;;;;;5094846;28;20095;-87
2022/06/06 12:42:51;;;;;;;2.70;0.52;;;18.80;99.90;;;;;;5092597;28;20482;-86
2022/06/06 12:45:53;;;;;;;1.83;0.47;;;18.50;99.90;;;;;;5112726;28;20043;-85
2022/06/06 12:48:30;;;;;;;4.07;0.50;;;18.00;99.90;;;;;;5094181;28;20048;-86
2022/06/06 12:51:23;;;;;;;2.60;0.47;;;17.60;99.90;;;;;;5075924;28;20043;-88
2022/06/06 12:53:57;;;;;;;0.63;0.50;;;17.30;99.90;;;;;;5063549;28;20130;-87
2022/06/06 12:56:35;;;;;;;4.65;0.70;;;17.00;99.90;;;;;;5097146;28;20059;-87
2022/06/06 12:59:17;;;;;;;5.60;0.88;;;16.70;99.90;;;;;;5097521;28;20080;-87
2022/06/06 13:02:18;;;;;;;3.40;0.80;;;16.50;99.90;;;;;;5098918;28;20054;-88
2022/06/06 13:05:18;;;;;;;2.85;0.73;;;16.40;99.90;;;;;;5074452;28;20085;-89
2022/06/06 13:08:06;;;;;;;3.65;0.85;;;16.20;99.90;;;;;;5097426;28;20059;-88
2022/06/06 13:10:42;;;;;;;6.43;1.10;;;16.10;99.90;;;;;;5116612;28;20051;-85
2022/06/06 13:13:25;;;;;;;3.70;0.88;;;16.10;99.90;;;;;;5114591;28;20047;-86
2022/06/06 13:16:11;;;;;;;4.30;1.10;;;15.90;99.90;;;;;;5076664;28;20052;-86
2022/06/06 13:18:49;;;;;;;3.75;0.60;;;15.80;99.90;;;;;;5091136;28;20051;-84
2022/06/06 13:21:35;;;;;;;3.53;0.82;;;15.70;99.90;;;;;;5089067;28;20127;-87
2022/06/06 13:24:13;;;;;;;1.75;0.73;;;15.70;99.90;;;;;;5094269;28;20047;-89
2022/06/06 13:26:55;;;;;;;3.42;0.93;;;15.70;99.90;;;;;;5072836;28;20066;-88
2022/06/06 13:29:33;;;;;;;2.88;1.20;;;15.80;99.90;;;;;;5088992;28;20055;-85
2022/06/06 13:32:18;;;;;;;2.75;0.75;;;15.90;99.90;;;;;;5109325;28;20479;-89
2022/06/06 13:34:59;;;;;;;2.38;0.70;;;16.00;99.90;;;;;;5089524;28;20074;-85
2022/06/06 13:37:43;;;;;;;3.35;0.95;;;16.10;99.90;;;;;;5072759;28;20344;-84
2022/06/06 13:40:26;;;;;;;2.67;0.80;;;16.00;99.90;;;;;;5074338;28;20092;-87
2022/06/06 13:42:55;;;;;;;;;;;16.20;99.90;;;;;;5072165;28;20078;-88
2022/06/06 13:45:27;;;;;;;3.30;1.17;;;16.10;99.90;;;;;;5090188;28;19975;-85
2022/06/06 13:48:19;;;;;;;3.75;0.73;;;16.10;99.90;;;;;;5089057;28;20051;-90
2022/06/06 13:51:09;;;;;;;6.35;1.15;;;15.90;99.90;;;;;;5088568;28;20490;-88
2022/06/06 13:53:38;;;;;;;4.85;1.60;;;15.70;99.90;;;;;;5073476;28;20040;-88
2022/06/06 13:56:26;;;;;;;2.47;1.20;;;15.50;99.90;;;;;;5071987;28;20047;-89
2022/06/06 13:59:29;;;;;;;3.30;1.80;;;15.30;99.90;;;;;;5090408;28;20134;-93
2022/06/06 14:02:25;;;;;;;3.47;1.20;;;15.20;99.90;;;;;;5091419;28;20134;-91
2022/06/06 14:05:08;;;;;;;2.85;1.25;;;15.10;99.90;;;;;;5073915;28;20047;-95
2022/06/06 14:07:50;;;;;;;4.80;1.50;;;15.00;99.90;;;;;;5072499;28;20043;-93
2022/06/06 14:10:18;;;;;;;5.85;1.73;;;15.10;99.90;;;;;;5075249;28;20054;-89
2022/06/06 14:13:18;;;;;;;4.15;1.65;;;15.10;99.90;;;;;;5055133;28;20044;-87
2022/06/06 14:15:48;;;;;;;3.03;1.77;;;15.10;99.90;;;;;;5073803;28;20083;-87
2022/06/06 14:18:21;;;;;;;3.78;1.75;;;15.10;99.90;;;;;;5056578;28;20593;-91
2022/06/06 14:20:52;;;;;;;;;;;15.10;99.90;;;;;;5090097;28;20036;-92
2022/06/06 14:23:25;;;;;;;5.32;1.48;;;15.00;99.90;;;;;;5091881;28;19919;-89
2022/06/06 14:25:55;;;;;;;3.65;1.95;;;14.90;99.90;;;;;;5070759;28;20116;-91
2022/06/06 14:28:28;;;;;;;2.58;2.17;;;14.90;99.90;;;;;;5072714;28;20048;-90
2022/06/06 14:30:54;;;;;;;;;;;14.80;99.90;;;;;;5088837;28;20047;-91
2022/06/06 14:33:38;;;;;;;6.15;2.17;;;14.80;99.90;;;;;;5073428;28;20279;-92
2022/06/06 14:36:26;;;;;;;4.97;2.30;;;15.80;99.90;;;;;;5075618;28;20469;-92
2022/06/06 14:39:03;;;;;;;4.78;2.28;;;14.80;99.90;;;;;;5070120;28;20040;-93
2022/06/06 14:41:49;;;;;;;10.82;1.92;;;15.10;99.90;;;;;;5065715;28;20047;-94
2022/06/06 14:44:31;;;;;;;2.40;1.40;;;14.60;99.90;;;;;;5077756;28;20047;-94
2022/06/06 14:47:14;;;;;;;1.88;1.05;;;14.50;99.90;;;;;;5072132;28;20114;-92
2022/06/06 14:50:45;;;;;;;2.75;1.33;;;14.50;99.90;;;;;;5073336;28;20078;-89
2022/06/06 14:52:51;;;;;;;3.97;1.77;;;14.40;99.90;;;;;;5088524;28;20047;-93
2022/06/06 14:55:33;;;;;;;5.35;1.90;;;14.40;99.90;;;;;;5074212;28;20101;-88
2022/06/06 14:58:27;;;;;;;5.35;2.67;;;14.30;99.90;;;;;;5088592;28;20058;-96
2022/06/06 15:01:07;;;;;;;4.93;2.90;;;14.30;99.90;;;;;;5080163;28;20047;-92
2022/06/06 15:03:38;;;;;;;5.50;3.33;;;14.40;99.90;;;;;;5072460;28;20055;-93
2022/06/06 15:06:24;;;;;;;7.10;2.88;;;14.40;99.90;;;;;;5070538;28;20046;-91
2022/06/06 15:08:57;;;;;;;6.60;3.00;;;14.40;99.90;;;;;;5071452;28;20070;-87
2022/06/06 15:11:30;;;;;;;4.38;2.00;;;14.30;99.90;;;;;;5071775;28;20101;-92
2022/06/06 15:13:59;;;;;;;4.15;2.15;;;14.40;99.90;;;;;;5070033;28;20050;-90
2022/06/06 15:16:30;;;;;;;1.10;0.93;;;14.30;99.90;;;;;;5071002;28;20048;-89
2022/06/06 15:19:01;;;;;;;2.60;0.77;;;14.30;99.90;;;;;;5070061;28;20436;-87
2022/06/06 15:21:38;;;;;;;4.15;2.70;;;14.20;99.90;;;;;;5087845;28;20075;-86
2022/06/06 15:24:33;;;;;;;12.43;6.95;;;14.20;99.90;;;;;;5105728;28;20127;-89
2022/06/06 15:27:37;;;;;;;2.22;1.08;;;13.10;99.90;;;;;;5080051;28;20048;-89
2022/06/06 15:30:10;;;;;;;1.70;0.70;;;14.00;99.90;;;;;;5064977;28;20047;-87
2022/06/06 15:33:08;;;;;;;0.98;0.40;;;13.90;99.90;;;;;;5070256;28;20586;-86